sensor_id;sensor_type;location;lat;lon;timestamp;P1;durP1;ratioP1;P2;durP2;ratioP2
67195;SDS011;54122;53.538;49.366;2022-07-11T00:02:12;32.95;;;15.45;;
67195;SDS011;54122;53.538;49.366;2022-07-11T00:04:39;29.67;;;16.95;;
67195;SDS011;54122;53.538;49.366;2022-07-11T00:07:06;24.08;;;14.98;;
67195;SDS011;54122;53.538;49.366;2022-07-11T00:09:32;31.60;;;16.30;;
67195;SDS011;54122;53.538;49.366;2022-07-11T00:11:59;35.75;;;16.75;;
67195;SDS011;54122;53.538;49.366;2022-07-11T00:14:25;24.25;;;15.80;;
67195;SDS011;54122;53.538;49.366;2022-07-11T00:16:52;24.83;;;16.00;;
67195;SDS011;54122;53.538;49.366;2022-07-11T00:19:19;24.27;;;14.80;;
67195;SDS011;54122;53.538;49.366;2022-07-11T00:21:46;29.10;;;15.55;;
67195;SDS011;54122;53.538;49.366;2022-07-11T00:24:13;29.10;;;15.43;;
67195;SDS011;54122;53.538;49.366;2022-07-11T00:26:39;36.67;;;16.90;;
67195;SDS011;54122;53.538;49.366;2022-07-11T00:29:06;30.25;;;17.55;;
67195;SDS011;54122;53.538;49.366;2022-07-11T00:31:32;29.85;;;18.15;;
67195;SDS011;54122;53.538;49.366;2022-07-11T00:33:58;30.10;;;19.38;;
67195;SDS011;54122;53.538;49.366;2022-07-11T00:36:25;31.23;;;19.45;;
67195;SDS011;54122;53.538;49.366;2022-07-11T00:38:51;32.47;;;18.25;;
67195;SDS011;54122;53.538;49.366;2022-07-11T00:41:18;33.22;;;19.30;;
67195;SDS011;54122;53.538;49.366;2022-07-11T00:43:50;33.08;;;17.38;;
67195;SDS011;54122;53.538;49.366;2022-07-11T00:46:27;29.25;;;16.42;;
67195;SDS011;54122;53.538;49.366;2022-07-11T00:48:54;27.02;;;17.38;;
67195;SDS011;54122;53.538;49.366;2022-07-11T00:51:22;27.45;;;17.08;;
67195;SDS011;54122;53.538;49.366;2022-07-11T00:53:50;29.90;;;17.23;;
67195;SDS011;54122;53.538;49.366;2022-07-11T00:56:21;27.48;;;16.08;;
67195;SDS011;54122;53.538;49.366;2022-07-11T00:58:49;27.80;;;16.70;;
67195;SDS011;54122;53.538;49.366;2022-07-11T01:01:17;26.67;;;17.63;;
67195;SDS011;54122;53.538;49.366;2022-07-11T01:03:44;29.90;;;18.27;;
67195;SDS011;54122;53.538;49.366;2022-07-11T01:06:11;31.08;;;17.55;;
67195;SDS011;54122;53.538;49.366;2022-07-11T01:08:38;23.55;;;16.67;;
67195;SDS011;54122;53.538;49.366;2022-07-11T01:11:09;25.63;;;16.55;;
67195;SDS011;54122;53.538;49.366;2022-07-11T01:13:41;32.33;;;16.73;;
67195;SDS011;54122;53.538;49.366;2022-07-11T01:16:12;24.27;;;14.80;;
67195;SDS011;54122;53.538;49.366;2022-07-11T01:19:01;22.85;;;14.65;;
67195;SDS011;54122;53.538;49.366;2022-07-11T01:21:31;20.35;;;14.48;;
67195;SDS011;54122;53.538;49.366;2022-07-11T01:24:04;34.67;;;14.18;;
67195;SDS011;54122;53.538;49.366;2022-07-11T01:26:31;23.20;;;13.40;;
67195;SDS011;54122;53.538;49.366;2022-07-11T01:29:05;22.98;;;13.73;;
67195;SDS011;54122;53.538;49.366;2022-07-11T01:31:32;22.40;;;13.57;;
67195;SDS011;54122;53.538;49.366;2022-07-11T01:33:58;19.27;;;12.98;;
67195;SDS011;54122;53.538;49.366;2022-07-11T01:36:25;17.00;;;12.88;;
67195;SDS011;54122;53.538;49.366;2022-07-11T01:38:51;23.42;;;11.32;;
67195;SDS011;54122;53.538;49.366;2022-07-11T01:41:17;21.55;;;12.07;;
67195;SDS011;54122;53.538;49.366;2022-07-11T01:43:43;16.10;;;11.70;;
67195;SDS011;54122;53.538;49.366;2022-07-11T01:46:10;15.73;;;11.25;;
67195;SDS011;54122;53.538;49.366;2022-07-11T01:48:36;23.98;;;11.85;;
67195;SDS011;54122;53.538;49.366;2022-07-11T01:51:02;21.63;;;10.93;;
67195;SDS011;54122;53.538;49.366;2022-07-11T01:53:28;18.25;;;10.23;;
67195;SDS011;54122;53.538;49.366;2022-07-11T01:55:55;23.58;;;10.20;;
67195;SDS011;54122;53.538;49.366;2022-07-11T01:58:21;16.00;;;9.65;;
67195;SDS011;54122;53.538;49.366;2022-07-11T02:00:47;14.90;;;8.48;;
67195;SDS011;54122;53.538;49.366;2022-07-11T02:03:13;15.43;;;8.75;;
67195;SDS011;54122;53.538;49.366;2022-07-11T02:05:39;13.73;;;7.97;;
67195;SDS011;54122;53.538;49.366;2022-07-11T02:08:06;19.48;;;8.70;;
67195;SDS011;54122;53.538;49.366;2022-07-11T02:10:43;17.83;;;8.02;;
67195;SDS011;54122;53.538;49.366;2022-07-11T02:13:15;16.63;;;8.48;;
67195;SDS011;54122;53.538;49.366;2022-07-11T02:15:43;17.38;;;8.50;;
67195;SDS011;54122;53.538;49.366;2022-07-11T02:18:10;11.65;;;8.15;;
67195;SDS011;54122;53.538;49.366;2022-07-11T02:20:38;16.42;;;8.55;;
67195;SDS011;54122;53.538;49.366;2022-07-11T02:23:06;16.67;;;8.13;;
67195;SDS011;54122;53.538;49.366;2022-07-11T02:25:33;17.08;;;7.80;;
67195;SDS011;54122;53.538;49.366;2022-07-11T02:28:05;13.30;;;8.15;;
67195;SDS011;54122;53.538;49.366;2022-07-11T02:30:35;14.23;;;8.55;;
67195;SDS011;54122;53.538;49.366;2022-07-11T02:33:02;12.77;;;8.35;;
67195;SDS011;54122;53.538;49.366;2022-07-11T02:35:29;19.88;;;8.02;;
67195;SDS011;54122;53.538;49.366;2022-07-11T02:37:56;17.45;;;8.30;;
67195;SDS011;54122;53.538;49.366;2022-07-11T02:40:22;14.77;;;7.93;;
67195;SDS011;54122;53.538;49.366;2022-07-11T02:42:48;23.83;;;9.15;;
67195;SDS011;54122;53.538;49.366;2022-07-11T02:45:15;19.85;;;10.05;;
67195;SDS011;54122;53.538;49.366;2022-07-11T02:47:41;16.75;;;9.65;;
67195;SDS011;54122;53.538;49.366;2022-07-11T02:50:08;52.50;;;11.25;;
67195;SDS011;54122;53.538;49.366;2022-07-11T02:52:36;22.30;;;9.90;;
67195;SDS011;54122;53.538;49.366;2022-07-11T02:55:04;19.48;;;10.15;;
67195;SDS011;54122;53.538;49.366;2022-07-11T02:57:33;23.98;;;11.25;;
67195;SDS011;54122;53.538;49.366;2022-07-11T02:59:59;15.18;;;9.75;;
67195;SDS011;54122;53.538;49.366;2022-07-11T03:02:27;14.25;;;9.48;;
67195;SDS011;54122;53.538;49.366;2022-07-11T03:04:53;23.92;;;9.90;;
67195;SDS011;54122;53.538;49.366;2022-07-11T03:07:19;16.75;;;9.35;;
67195;SDS011;54122;53.538;49.366;2022-07-11T03:09:46;18.55;;;10.30;;
67195;SDS011;54122;53.538;49.366;2022-07-11T03:12:12;22.83;;;10.32;;
67195;SDS011;54122;53.538;49.366;2022-07-11T03:14:38;14.63;;;10.18;;
67195;SDS011;54122;53.538;49.366;2022-07-11T03:17:04;19.95;;;11.07;;
67195;SDS011;54122;53.538;49.366;2022-07-11T03:19:30;20.58;;;10.98;;
67195;SDS011;54122;53.538;49.366;2022-07-11T03:21:57;22.48;;;11.65;;
67195;SDS011;54122;53.538;49.366;2022-07-11T03:24:23;26.67;;;12.90;;
67195;SDS011;54122;53.538;49.366;2022-07-11T03:26:49;23.77;;;12.25;;
67195;SDS011;54122;53.538;49.366;2022-07-11T03:29:15;27.58;;;13.43;;
67195;SDS011;54122;53.538;49.366;2022-07-11T03:31:43;26.00;;;13.25;;
67195;SDS011;54122;53.538;49.366;2022-07-11T03:34:09;22.52;;;13.32;;
67195;SDS011;54122;53.538;49.366;2022-07-11T03:36:35;31.58;;;12.80;;
67195;SDS011;54122;53.538;49.366;2022-07-11T03:39:02;23.52;;;13.52;;
67195;SDS011;54122;53.538;49.366;2022-07-11T03:41:28;21.23;;;13.32;;
67195;SDS011;54122;53.538;49.366;2022-07-11T03:43:54;33.53;;;14.40;;
67195;SDS011;54122;53.538;49.366;2022-07-11T03:46:22;29.50;;;13.95;;
67195;SDS011;54122;53.538;49.366;2022-07-11T03:48:49;24.70;;;14.07;;
67195;SDS011;54122;53.538;49.366;2022-07-11T03:51:15;29.73;;;15.32;;
67195;SDS011;54122;53.538;49.366;2022-07-11T03:53:44;28.15;;;15.65;;
67195;SDS011;54122;53.538;49.366;2022-07-11T03:56:10;28.52;;;14.55;;
67195;SDS011;54122;53.538;49.366;2022-07-11T03:58:37;45.42;;;15.43;;
67195;SDS011;54122;53.538;49.366;2022-07-11T04:01:03;36.58;;;16.73;;
67195;SDS011;54122;53.538;49.366;2022-07-11T04:03:29;34.03;;;16.45;;
67195;SDS011;54122;53.538;49.366;2022-07-11T04:05:56;38.70;;;16.10;;
67195;SDS011;54122;53.538;49.366;2022-07-11T04:08:22;43.03;;;15.65;;
67195;SDS011;54122;53.538;49.366;2022-07-11T04:10:48;39.65;;;15.57;;
67195;SDS011;54122;53.538;49.366;2022-07-11T04:13:14;33.88;;;15.13;;
67195;SDS011;54122;53.538;49.366;2022-07-11T04:15:40;32.75;;;16.75;;
67195;SDS011;54122;53.538;49.366;2022-07-11T04:18:07;35.42;;;17.67;;
67195;SDS011;54122;53.538;49.366;2022-07-11T04:20:33;40.28;;;20.80;;
67195;SDS011;54122;53.538;49.366;2022-07-11T04:22:59;45.30;;;22.73;;
67195;SDS011;54122;53.538;49.366;2022-07-11T04:25:25;53.45;;;22.45;;
67195;SDS011;54122;53.538;49.366;2022-07-11T04:27:51;52.90;;;22.67;;
67195;SDS011;54122;53.538;49.366;2022-07-11T04:30:18;50.13;;;22.40;;
67195;SDS011;54122;53.538;49.366;2022-07-11T04:32:44;50.03;;;23.67;;
67195;SDS011;54122;53.538;49.366;2022-07-11T04:35:10;65.75;;;24.52;;
67195;SDS011;54122;53.538;49.366;2022-07-11T04:37:36;72.57;;;28.35;;
67195;SDS011;54122;53.538;49.366;2022-07-11T04:40:02;73.50;;;29.10;;
67195;SDS011;54122;53.538;49.366;2022-07-11T04:42:29;64.07;;;29.50;;
67195;SDS011;54122;53.538;49.366;2022-07-11T04:44:55;70.88;;;26.85;;
67195;SDS011;54122;53.538;49.366;2022-07-11T04:47:21;59.05;;;26.10;;
67195;SDS011;54122;53.538;49.366;2022-07-11T04:49:48;73.25;;;25.77;;
67195;SDS011;54122;53.538;49.366;2022-07-11T04:52:16;66.82;;;25.70;;
67195;SDS011;54122;53.538;49.366;2022-07-11T04:54:42;70.63;;;26.20;;
67195;SDS011;54122;53.538;49.366;2022-07-11T04:57:08;59.50;;;24.35;;
67195;SDS011;54122;53.538;49.366;2022-07-11T04:59:34;85.85;;;24.88;;
67195;SDS011;54122;53.538;49.366;2022-07-11T05:02:01;54.25;;;23.15;;
67195;SDS011;54122;53.538;49.366;2022-07-11T05:04:27;46.50;;;21.67;;
67195;SDS011;54122;53.538;49.366;2022-07-11T05:06:53;53.53;;;22.88;;
67195;SDS011;54122;53.538;49.366;2022-07-11T05:09:19;50.28;;;22.73;;
67195;SDS011;54122;53.538;49.366;2022-07-11T05:11:45;48.88;;;21.90;;
67195;SDS011;54122;53.538;49.366;2022-07-11T05:14:11;38.53;;;21.13;;
67195;SDS011;54122;53.538;49.366;2022-07-11T05:16:38;52.38;;;23.02;;
67195;SDS011;54122;53.538;49.366;2022-07-11T05:19:04;52.47;;;23.02;;
67195;SDS011;54122;53.538;49.366;2022-07-11T05:21:30;42.63;;;21.40;;
67195;SDS011;54122;53.538;49.366;2022-07-11T05:23:57;48.75;;;22.63;;
67195;SDS011;54122;53.538;49.366;2022-07-11T05:26:23;39.95;;;19.90;;
67195;SDS011;54122;53.538;49.366;2022-07-11T05:28:49;36.22;;;19.92;;
67195;SDS011;54122;53.538;49.366;2022-07-11T05:31:15;37.70;;;18.83;;
67195;SDS011;54122;53.538;49.366;2022-07-11T05:33:41;36.05;;;19.00;;
67195;SDS011;54122;53.538;49.366;2022-07-11T05:36:07;34.40;;;18.55;;
67195;SDS011;54122;53.538;49.366;2022-07-11T05:38:34;26.52;;;13.38;;
67195;SDS011;54122;53.538;49.366;2022-07-11T05:41:00;35.20;;;16.65;;
67195;SDS011;54122;53.538;49.366;2022-07-11T05:43:27;26.88;;;15.23;;
67195;SDS011;54122;53.538;49.366;2022-07-11T05:45:54;23.88;;;13.25;;
67195;SDS011;54122;53.538;49.366;2022-07-11T05:48:20;24.17;;;12.75;;
67195;SDS011;54122;53.538;49.366;2022-07-11T05:50:46;25.27;;;12.95;;
67195;SDS011;54122;53.538;49.366;2022-07-11T05:53:12;31.55;;;16.88;;
67195;SDS011;54122;53.538;49.366;2022-07-11T05:55:40;32.42;;;15.85;;
67195;SDS011;54122;53.538;49.366;2022-07-11T05:58:06;17.73;;;10.95;;
67195;SDS011;54122;53.538;49.366;2022-07-11T06:00:33;19.88;;;8.85;;
67195;SDS011;54122;53.538;49.366;2022-07-11T06:02:59;14.38;;;8.05;;
67195;SDS011;54122;53.538;49.366;2022-07-11T06:05:25;15.95;;;7.97;;
67195;SDS011;54122;53.538;49.366;2022-07-11T06:07:51;9.02;;;7.50;;
67195;SDS011;54122;53.538;49.366;2022-07-11T06:10:36;12.75;;;7.72;;
67195;SDS011;54122;53.538;49.366;2022-07-11T06:13:03;13.80;;;8.35;;
67195;SDS011;54122;53.538;49.366;2022-07-11T06:15:30;21.30;;;8.48;;
67195;SDS011;54122;53.538;49.366;2022-07-11T06:17:56;14.38;;;8.15;;
67195;SDS011;54122;53.538;49.366;2022-07-11T06:20:22;16.02;;;8.57;;
67195;SDS011;54122;53.538;49.366;2022-07-11T06:22:48;14.23;;;7.95;;
67195;SDS011;54122;53.538;49.366;2022-07-11T06:25:15;11.10;;;8.10;;
67195;SDS011;54122;53.538;49.366;2022-07-11T06:27:41;10.73;;;7.88;;
67195;SDS011;54122;53.538;49.366;2022-07-11T06:30:07;10.27;;;7.60;;
67195;SDS011;54122;53.538;49.366;2022-07-11T06:32:34;10.85;;;8.60;;
67195;SDS011;54122;53.538;49.366;2022-07-11T06:35:00;19.15;;;8.90;;
67195;SDS011;54122;53.538;49.366;2022-07-11T06:37:26;10.52;;;8.48;;
67195;SDS011;54122;53.538;49.366;2022-07-11T06:39:52;16.30;;;8.73;;
67195;SDS011;54122;53.538;49.366;2022-07-11T06:42:19;17.23;;;9.20;;
67195;SDS011;54122;53.538;49.366;2022-07-11T06:44:45;15.93;;;7.97;;
67195;SDS011;54122;53.538;49.366;2022-07-11T06:47:11;10.45;;;7.35;;
67195;SDS011;54122;53.538;49.366;2022-07-11T06:49:37;16.35;;;7.72;;
67195;SDS011;54122;53.538;49.366;2022-07-11T06:52:03;16.48;;;7.88;;
67195;SDS011;54122;53.538;49.366;2022-07-11T06:54:30;15.85;;;7.57;;
67195;SDS011;54122;53.538;49.366;2022-07-11T06:56:56;13.65;;;7.78;;
67195;SDS011;54122;53.538;49.366;2022-07-11T06:59:22;11.63;;;7.28;;
67195;SDS011;54122;53.538;49.366;2022-07-11T07:01:49;11.73;;;6.97;;
67195;SDS011;54122;53.538;49.366;2022-07-11T07:04:15;9.45;;;6.35;;
67195;SDS011;54122;53.538;49.366;2022-07-11T07:06:41;12.25;;;6.18;;
67195;SDS011;54122;53.538;49.366;2022-07-11T07:09:08;10.75;;;6.40;;
67195;SDS011;54122;53.538;49.366;2022-07-11T07:11:34;11.82;;;7.18;;
67195;SDS011;54122;53.538;49.366;2022-07-11T07:14:00;11.15;;;6.85;;
67195;SDS011;54122;53.538;49.366;2022-07-11T07:16:26;10.18;;;6.72;;
67195;SDS011;54122;53.538;49.366;2022-07-11T07:18:52;7.45;;;5.93;;
67195;SDS011;54122;53.538;49.366;2022-07-11T07:21:18;9.43;;;6.45;;
67195;SDS011;54122;53.538;49.366;2022-07-11T07:23:45;11.35;;;6.60;;
67195;SDS011;54122;53.538;49.366;2022-07-11T07:26:12;8.18;;;6.38;;
67195;SDS011;54122;53.538;49.366;2022-07-11T07:28:38;19.13;;;6.30;;
67195;SDS011;54122;53.538;49.366;2022-07-11T07:31:05;11.02;;;7.15;;
67195;SDS011;54122;53.538;49.366;2022-07-11T07:33:32;14.43;;;7.53;;
67195;SDS011;54122;53.538;49.366;2022-07-11T07:35:58;13.02;;;8.40;;
67195;SDS011;54122;53.538;49.366;2022-07-11T07:38:24;12.18;;;7.97;;
67195;SDS011;54122;53.538;49.366;2022-07-11T07:40:50;10.75;;;8.38;;
67195;SDS011;54122;53.538;49.366;2022-07-11T07:43:16;19.38;;;8.80;;
67195;SDS011;54122;53.538;49.366;2022-07-11T07:45:43;18.60;;;7.55;;
67195;SDS011;54122;53.538;49.366;2022-07-11T07:48:09;10.27;;;8.30;;
67195;SDS011;54122;53.538;49.366;2022-07-11T07:50:35;10.80;;;7.93;;
67195;SDS011;54122;53.538;49.366;2022-07-11T07:53:01;15.48;;;7.88;;
67195;SDS011;54122;53.538;49.366;2022-07-11T07:55:27;10.57;;;7.13;;
67195;SDS011;54122;53.538;49.366;2022-07-11T07:57:53;16.90;;;7.05;;
67195;SDS011;54122;53.538;49.366;2022-07-11T08:00:20;9.00;;;7.13;;
67195;SDS011;54122;53.538;49.366;2022-07-11T08:03:05;12.90;;;7.50;;
67195;SDS011;54122;53.538;49.366;2022-07-11T08:05:33;9.60;;;7.60;;
67195;SDS011;54122;53.538;49.366;2022-07-11T08:08:00;9.65;;;7.93;;
67195;SDS011;54122;53.538;49.366;2022-07-11T08:10:26;13.40;;;8.10;;
67195;SDS011;54122;53.538;49.366;2022-07-11T08:12:52;9.85;;;7.57;;
67195;SDS011;54122;53.538;49.366;2022-07-11T08:15:18;35.40;;;8.30;;
67195;SDS011;54122;53.538;49.366;2022-07-11T08:17:45;14.95;;;7.32;;
67195;SDS011;54122;53.538;49.366;2022-07-11T08:20:11;38.38;;;9.52;;
67195;SDS011;54122;53.538;49.366;2022-07-11T08:22:37;15.93;;;7.07;;
67195;SDS011;54122;53.538;49.366;2022-07-11T08:25:03;15.70;;;6.32;;
67195;SDS011;54122;53.538;49.366;2022-07-11T08:27:30;10.57;;;6.85;;
67195;SDS011;54122;53.538;49.366;2022-07-11T08:29:56;8.30;;;6.40;;
67195;SDS011;54122;53.538;49.366;2022-07-11T08:32:27;11.77;;;6.60;;
67195;SDS011;54122;53.538;49.366;2022-07-11T08:34:53;9.30;;;6.53;;
67195;SDS011;54122;53.538;49.366;2022-07-11T08:37:19;9.65;;;6.30;;
67195;SDS011;54122;53.538;49.366;2022-07-11T08:39:45;11.38;;;5.95;;
67195;SDS011;54122;53.538;49.366;2022-07-11T08:42:11;11.90;;;5.82;;
67195;SDS011;54122;53.538;49.366;2022-07-11T08:44:38;8.00;;;5.78;;
67195;SDS011;54122;53.538;49.366;2022-07-11T08:47:05;8.80;;;4.68;;
67195;SDS011;54122;53.538;49.366;2022-07-11T08:49:32;11.05;;;5.10;;
67195;SDS011;54122;53.538;49.366;2022-07-11T08:51:58;4.93;;;4.18;;
67195;SDS011;54122;53.538;49.366;2022-07-11T08:54:24;4.90;;;3.90;;
67195;SDS011;54122;53.538;49.366;2022-07-11T08:56:51;4.15;;;3.75;;
67195;SDS011;54122;53.538;49.366;2022-07-11T08:59:19;5.45;;;4.20;;
67195;SDS011;54122;53.538;49.366;2022-07-11T09:01:48;8.77;;;4.00;;
67195;SDS011;54122;53.538;49.366;2022-07-11T09:04:17;6.97;;;4.00;;
67195;SDS011;54122;53.538;49.366;2022-07-11T09:06:43;5.13;;;4.03;;
67195;SDS011;54122;53.538;49.366;2022-07-11T09:09:09;4.15;;;3.72;;
67195;SDS011;54122;53.538;49.366;2022-07-11T09:11:52;6.10;;;3.85;;
67195;SDS011;54122;53.538;49.366;2022-07-11T09:14:27;5.80;;;4.00;;
67195;SDS011;54122;53.538;49.366;2022-07-11T09:16:55;10.85;;;4.75;;
67195;SDS011;54122;53.538;49.366;2022-07-11T09:19:23;12.30;;;5.53;;
67195;SDS011;54122;53.538;49.366;2022-07-11T09:25:12;9.43;;;5.18;;
67195;SDS011;54122;53.538;49.366;2022-07-11T09:28:00;5.88;;;4.45;;
67195;SDS011;54122;53.538;49.366;2022-07-11T09:30:32;7.00;;;4.00;;
67195;SDS011;54122;53.538;49.366;2022-07-11T09:35:30;6.28;;;4.15;;
67195;SDS011;54122;53.538;49.366;2022-07-11T09:37:58;4.78;;;3.75;;
67195;SDS011;54122;53.538;49.366;2022-07-11T09:40:27;10.07;;;4.57;;
67195;SDS011;54122;53.538;49.366;2022-07-11T09:42:54;9.27;;;4.28;;
67195;SDS011;54122;53.538;49.366;2022-07-11T09:45:22;12.15;;;4.78;;
67195;SDS011;54122;53.538;49.366;2022-07-11T09:47:51;6.38;;;4.32;;
67195;SDS011;54122;53.538;49.366;2022-07-11T09:53:07;6.28;;;4.82;;
67195;SDS011;54122;53.538;49.366;2022-07-11T09:55:34;10.48;;;4.63;;
67195;SDS011;54122;53.538;49.366;2022-07-11T09:58:04;8.57;;;3.80;;
67195;SDS011;54122;53.538;49.366;2022-07-11T10:00:32;6.05;;;3.55;;
67195;SDS011;54122;53.538;49.366;2022-07-11T10:03:00;5.47;;;3.78;;
67195;SDS011;54122;53.538;49.366;2022-07-11T10:05:28;6.47;;;4.30;;
67195;SDS011;54122;53.538;49.366;2022-07-11T10:07:56;9.40;;;4.25;;
67195;SDS011;54122;53.538;49.366;2022-07-11T10:10:23;9.70;;;4.63;;
67195;SDS011;54122;53.538;49.366;2022-07-11T10:12:51;6.15;;;4.38;;
67195;SDS011;54122;53.538;49.366;2022-07-11T10:15:34;7.18;;;3.92;;
67195;SDS011;54122;53.538;49.366;2022-07-11T10:29:07;4.60;;;3.47;;
67195;SDS011;54122;53.538;49.366;2022-07-11T10:34:33;7.88;;;3.60;;
67195;SDS011;54122;53.538;49.366;2022-07-11T10:37:03;9.60;;;4.00;;
67195;SDS011;54122;53.538;49.366;2022-07-11T10:39:34;4.60;;;3.92;;
67195;SDS011;54122;53.538;49.366;2022-07-11T10:42:03;8.85;;;4.07;;
67195;SDS011;54122;53.538;49.366;2022-07-11T10:44:46;4.07;;;3.58;;
67195;SDS011;54122;53.538;49.366;2022-07-11T10:52:55;8.57;;;3.58;;
67195;SDS011;54122;53.538;49.366;2022-07-11T10:55:31;9.13;;;3.70;;
67195;SDS011;54122;53.538;49.366;2022-07-11T11:00:33;5.97;;;3.70;;
67195;SDS011;54122;53.538;49.366;2022-07-11T11:03:06;6.43;;;3.30;;
67195;SDS011;54122;53.538;49.366;2022-07-11T11:05:50;6.03;;;3.90;;
67195;SDS011;54122;53.538;49.366;2022-07-11T11:11:00;9.15;;;3.85;;
67195;SDS011;54122;53.538;49.366;2022-07-11T11:13:28;6.72;;;3.60;;
67195;SDS011;54122;53.538;49.366;2022-07-11T11:15:56;6.32;;;3.30;;
67195;SDS011;54122;53.538;49.366;2022-07-11T11:21:23;7.65;;;3.67;;
67195;SDS011;54122;53.538;49.366;2022-07-11T11:24:00;7.95;;;3.50;;
67195;SDS011;54122;53.538;49.366;2022-07-11T11:26:42;8.38;;;3.40;;
67195;SDS011;54122;53.538;49.366;2022-07-11T11:29:22;10.38;;;3.33;;
67195;SDS011;54122;53.538;49.366;2022-07-11T11:31:52;9.82;;;2.90;;
67195;SDS011;54122;53.538;49.366;2022-07-11T11:34:23;6.60;;;3.15;;
67195;SDS011;54122;53.538;49.366;2022-07-11T11:36:54;12.27;;;3.22;;
67195;SDS011;54122;53.538;49.366;2022-07-11T11:39:25;9.70;;;3.40;;
67195;SDS011;54122;53.538;49.366;2022-07-11T11:42:06;5.47;;;3.17;;
67195;SDS011;54122;53.538;49.366;2022-07-11T11:44:34;6.63;;;3.80;;
67195;SDS011;54122;53.538;49.366;2022-07-11T11:47:14;8.40;;;3.42;;
67195;SDS011;54122;53.538;49.366;2022-07-11T11:49:41;7.82;;;3.78;;
67195;SDS011;54122;53.538;49.366;2022-07-11T11:52:11;6.25;;;3.75;;
67195;SDS011;54122;53.538;49.366;2022-07-11T11:54:37;12.32;;;4.25;;
67195;SDS011;54122;53.538;49.366;2022-07-11T11:57:08;10.57;;;3.80;;
67195;SDS011;54122;53.538;49.366;2022-07-11T11:59:36;7.63;;;3.47;;
67195;SDS011;54122;53.538;49.366;2022-07-11T12:02:04;7.93;;;3.83;;
67195;SDS011;54122;53.538;49.366;2022-07-11T12:04:31;11.80;;;4.05;;
67195;SDS011;54122;53.538;49.366;2022-07-11T12:06:59;13.75;;;3.80;;
67195;SDS011;54122;53.538;49.366;2022-07-11T12:09:27;12.60;;;3.60;;
67195;SDS011;54122;53.538;49.366;2022-07-11T12:12:16;12.90;;;3.28;;
67195;SDS011;54122;53.538;49.366;2022-07-11T12:15:03;10.05;;;3.05;;
67195;SDS011;54122;53.538;49.366;2022-07-11T12:17:32;11.90;;;3.00;;
67195;SDS011;54122;53.538;49.366;2022-07-11T12:19:58;8.48;;;3.42;;
67195;SDS011;54122;53.538;49.366;2022-07-11T12:22:24;7.07;;;3.55;;
67195;SDS011;54122;53.538;49.366;2022-07-11T12:24:52;7.93;;;3.47;;
67195;SDS011;54122;53.538;49.366;2022-07-11T12:27:23;7.88;;;3.50;;
67195;SDS011;54122;53.538;49.366;2022-07-11T12:29:50;5.45;;;3.65;;
67195;SDS011;54122;53.538;49.366;2022-07-11T12:32:17;8.55;;;3.78;;
67195;SDS011;54122;53.538;49.366;2022-07-11T12:34:48;7.30;;;3.72;;
67195;SDS011;54122;53.538;49.366;2022-07-11T12:39:47;8.38;;;3.38;;
67195;SDS011;54122;53.538;49.366;2022-07-11T12:42:24;13.13;;;3.58;;
67195;SDS011;54122;53.538;49.366;2022-07-11T12:45:01;7.38;;;2.80;;
67195;SDS011;54122;53.538;49.366;2022-07-11T12:47:40;11.57;;;3.13;;
67195;SDS011;54122;53.538;49.366;2022-07-11T12:52:41;8.70;;;2.78;;
67195;SDS011;54122;53.538;49.366;2022-07-11T12:55:19;3.92;;;2.90;;
67195;SDS011;54122;53.538;49.366;2022-07-11T13:00:57;6.05;;;2.80;;
67195;SDS011;54122;53.538;49.366;2022-07-11T13:03:28;6.82;;;2.70;;
67195;SDS011;54122;53.538;49.366;2022-07-11T13:05:56;9.57;;;2.42;;
67195;SDS011;54122;53.538;49.366;2022-07-11T13:08:26;3.75;;;2.63;;
67195;SDS011;54122;53.538;49.366;2022-07-11T13:13:43;5.50;;;2.58;;
67195;SDS011;54122;53.538;49.366;2022-07-11T13:16:12;8.10;;;2.42;;
67195;SDS011;54122;53.538;49.366;2022-07-11T13:18:39;9.48;;;2.50;;
67195;SDS011;54122;53.538;49.366;2022-07-11T13:21:06;5.18;;;2.55;;
67195;SDS011;54122;53.538;49.366;2022-07-11T13:23:33;5.75;;;2.33;;
67195;SDS011;54122;53.538;49.366;2022-07-11T13:26:00;17.20;;;3.20;;
67195;SDS011;54122;53.538;49.366;2022-07-11T13:28:27;4.13;;;2.50;;
67195;SDS011;54122;53.538;49.366;2022-07-11T13:30:53;5.32;;;2.67;;
67195;SDS011;54122;53.538;49.366;2022-07-11T13:33:20;8.07;;;2.58;;
67195;SDS011;54122;53.538;49.366;2022-07-11T13:35:47;7.65;;;2.60;;
67195;SDS011;54122;53.538;49.366;2022-07-11T13:38:17;8.65;;;2.70;;
67195;SDS011;54122;53.538;49.366;2022-07-11T13:40:44;2.85;;;2.40;;
67195;SDS011;54122;53.538;49.366;2022-07-11T13:43:11;6.65;;;2.40;;
67195;SDS011;54122;53.538;49.366;2022-07-11T13:45:38;9.65;;;2.55;;
67195;SDS011;54122;53.538;49.366;2022-07-11T13:48:05;5.82;;;2.58;;
67195;SDS011;54122;53.538;49.366;2022-07-11T13:50:32;7.68;;;2.60;;
67195;SDS011;54122;53.538;49.366;2022-07-11T13:52:59;6.10;;;2.47;;
67195;SDS011;54122;53.538;49.366;2022-07-11T13:55:25;9.40;;;2.17;;
67195;SDS011;54122;53.538;49.366;2022-07-11T13:57:55;5.30;;;2.22;;
67195;SDS011;54122;53.538;49.366;2022-07-11T14:00:23;2.35;;;2.15;;
67195;SDS011;54122;53.538;49.366;2022-07-11T14:02:50;15.50;;;2.42;;
67195;SDS011;54122;53.538;49.366;2022-07-11T14:05:19;8.65;;;2.67;;
67195;SDS011;54122;53.538;49.366;2022-07-11T14:07:46;17.35;;;2.70;;
67195;SDS011;54122;53.538;49.366;2022-07-11T14:10:13;4.53;;;2.55;;
67195;SDS011;54122;53.538;49.366;2022-07-11T14:12:39;6.82;;;2.17;;
67195;SDS011;54122;53.538;49.366;2022-07-11T14:15:07;6.45;;;2.95;;
67195;SDS011;54122;53.538;49.366;2022-07-11T14:17:36;5.55;;;2.50;;
67195;SDS011;54122;53.538;49.366;2022-07-11T14:20:03;5.72;;;2.75;;
67195;SDS011;54122;53.538;49.366;2022-07-11T14:22:30;7.15;;;2.75;;
67195;SDS011;54122;53.538;49.366;2022-07-11T14:24:56;5.45;;;3.00;;
67195;SDS011;54122;53.538;49.366;2022-07-11T14:27:22;9.73;;;3.40;;
67195;SDS011;54122;53.538;49.366;2022-07-11T14:29:49;11.60;;;3.72;;
67195;SDS011;54122;53.538;49.366;2022-07-11T14:32:17;12.30;;;3.60;;
67195;SDS011;54122;53.538;49.366;2022-07-11T14:34:43;7.82;;;3.70;;
67195;SDS011;54122;53.538;49.366;2022-07-11T14:37:10;11.07;;;3.40;;
67195;SDS011;54122;53.538;49.366;2022-07-11T14:39:36;10.75;;;3.58;;
67195;SDS011;54122;53.538;49.366;2022-07-11T14:42:02;8.15;;;3.30;;
67195;SDS011;54122;53.538;49.366;2022-07-11T14:44:29;9.05;;;3.63;;
67195;SDS011;54122;53.538;49.366;2022-07-11T14:46:55;9.85;;;3.50;;
67195;SDS011;54122;53.538;49.366;2022-07-11T14:49:21;10.20;;;3.35;;
67195;SDS011;54122;53.538;49.366;2022-07-11T14:51:48;5.32;;;3.03;;
67195;SDS011;54122;53.538;49.366;2022-07-11T14:54:14;6.65;;;3.40;;
67195;SDS011;54122;53.538;49.366;2022-07-11T14:56:41;11.07;;;3.65;;
67195;SDS011;54122;53.538;49.366;2022-07-11T14:59:07;11.93;;;3.92;;
67195;SDS011;54122;53.538;49.366;2022-07-11T15:01:34;7.90;;;3.90;;
67195;SDS011;54122;53.538;49.366;2022-07-11T15:04:00;7.78;;;3.67;;
67195;SDS011;54122;53.538;49.366;2022-07-11T15:06:29;19.05;;;4.20;;
67195;SDS011;54122;53.538;49.366;2022-07-11T15:09:14;8.25;;;4.10;;
67195;SDS011;54122;53.538;49.366;2022-07-11T15:11:59;11.27;;;4.20;;
67195;SDS011;54122;53.538;49.366;2022-07-11T15:14:43;10.88;;;4.90;;